Time;durP1;ratioP1;P1;durP2;ratioP2;P2;SDS_P1;SDS_P2;PMS_P1;PMS_P2;Temp;Humidity;BMP_temperature;BMP_pressure;BME280_temperature;BME280_humidity;BME280_pressure;Samples;Min_cycle;Max_cycle;Signal;HPM_P1;HPM_P2
2022/10/24 00:01:33;;;;;;;15.50;1.97;;;16.00;62.10;;;;;;4964540;28;46433;-67
2022/10/24 00:03:59;;;;;;;4.93;1.83;;;15.90;62.40;;;;;;4979851;28;46463;-67
2022/10/24 00:06:25;;;;;;;8.90;1.90;;;15.90;62.90;;;;;;4965369;28;48007;-67
2022/10/24 00:08:51;;;;;;;4.40;1.93;;;15.70;63.10;;;;;;4963820;28;45948;-67
2022/10/24 00:11:20;;;;;;;11.80;1.63;;;15.70;64.20;;;;;;4980901;28;46492;-67
2022/10/24 00:13:45;;;;;;;4.10;2.17;;;15.60;64.50;;;;;;4964113;28;46535;-66
2022/10/24 00:16:12;;;;;;;10.70;2.40;;;15.50;65.20;;;;;;4964157;28;46468;-66
2022/10/24 00:18:37;;;;;;;7.13;1.83;;;15.50;65.00;;;;;;4980422;28;46345;-67
2022/10/24 00:21:04;;;;;;;10.13;2.03;;;15.50;66.20;;;;;;4964442;28;46557;-67
2022/10/24 00:23:29;;;;;;;17.30;2.47;;;15.50;66.50;;;;;;4964026;28;46432;-67
2022/10/24 00:26:00;;;;;;;12.33;2.33;;;15.40;67.00;;;;;;4962971;28;46387;-67
2022/10/24 00:28:26;;;;;;;9.70;2.43;;;15.40;66.90;;;;;;4964913;28;46386;-67
2022/10/24 00:30:52;;;;;;;17.53;2.50;;;15.40;66.00;;;;;;4964171;28;46676;-67
2022/10/24 00:33:18;;;;;;;7.87;2.40;;;15.40;67.60;;;;;;4964750;28;46466;-67
2022/10/24 00:35:43;;;;;;;6.57;2.10;;;15.40;67.80;;;;;;4963476;28;49121;-67
2022/10/24 00:38:09;;;;;;;11.17;2.90;;;15.40;68.10;;;;;;4963320;28;46539;-67
2022/10/24 00:40:35;;;;;;;5.30;2.00;;;15.30;67.80;;;;;;4979551;28;46564;-67
2022/10/24 00:43:00;;;;;;;19.13;2.67;;;15.30;69.40;;;;;;4964171;28;46620;-67
2022/10/24 00:45:36;;;;;;;8.27;2.67;;;15.30;69.30;;;;;;4979561;28;48995;-67
2022/10/24 00:48:18;;;;;;;8.07;2.70;;;15.30;69.30;;;;;;4964562;28;46424;-66
2022/10/24 00:50:45;;;;;;;8.37;2.83;;;15.30;68.20;;;;;;4963410;28;46571;-66
2022/10/24 00:53:13;;;;;;;10.23;2.23;;;15.40;69.40;;;;;;4981913;28;46363;-67
2022/10/24 00:55:39;;;;;;;10.60;2.83;;;15.30;69.30;;;;;;4980711;28;46644;-67
2022/10/24 00:58:07;;;;;;;9.93;2.47;;;15.40;69.40;;;;;;4981282;28;46512;-66
2022/10/24 01:00:33;;;;;;;10.70;2.30;;;15.40;68.30;;;;;;4963359;28;45879;-67
2022/10/24 01:03:00;;;;;;;8.17;2.30;;;15.40;69.40;;;;;;4962642;28;46449;-67
2022/10/24 01:05:30;;;;;;;9.10;1.90;;;15.40;69.40;;;;;;4963361;28;47858;-67
2022/10/24 01:08:19;;;;;;;10.57;2.40;;;15.40;69.40;;;;;;4963007;28;46390;-67
2022/10/24 01:10:57;;;;;;;10.63;2.90;;;15.50;68.40;;;;;;4962756;28;46515;-67
2022/10/24 01:13:57;;;;;;;9.03;2.90;;;15.40;69.40;;;;;;4979019;28;46472;-67
2022/10/24 01:16:35;;;;;;;11.63;2.37;;;15.50;69.50;;;;;;4979121;28;46373;-67
2022/10/24 01:19:25;;;;;;;10.07;2.17;;;15.40;68.30;;;;;;4963539;28;46348;-67
2022/10/24 01:22:13;;;;;;;10.57;2.40;;;15.40;69.40;;;;;;4981534;28;46393;-67
2022/10/24 01:25:21;;;;;;;20.27;2.10;;;15.40;69.40;;;;;;4962694;28;46717;-68
2022/10/24 01:27:52;;;;;;;13.37;2.73;;;15.30;69.30;;;;;;4963500;28;48074;-68
2022/10/24 01:30:19;;;;;;;10.40;1.90;;;15.20;68.30;;;;;;4979393;28;46341;-67
2022/10/24 01:33:14;;;;;;;13.73;3.00;;;15.20;69.50;;;;;;4962923;28;46662;-67
2022/10/24 01:35:51;;;;;;;8.77;1.97;;;15.20;69.70;;;;;;4963412;28;46443;-67
2022/10/24 01:38:33;;;;;;;11.10;2.47;;;15.20;70.00;;;;;;4963673;28;47882;-67
2022/10/24 01:41:07;;;;;;;7.70;2.50;;;15.20;68.90;;;;;;4963512;28;46436;-67
2022/10/24 01:43:47;;;;;;;8.63;1.83;;;15.20;69.90;;;;;;4964095;28;45790;-67
2022/10/24 01:46:18;;;;;;;7.53;2.00;;;15.20;69.60;;;;;;4964501;28;46688;-67
2022/10/24 01:48:53;;;;;;;9.10;2.23;;;15.30;68.30;;;;;;4966220;28;48698;-67
2022/10/24 01:51:23;;;;;;;5.93;2.10;;;15.30;69.30;;;;;;4966092;28;46494;-67
2022/10/24 01:53:50;;;;;;;7.93;1.93;;;15.30;69.30;;;;;;4965873;28;46349;-67
2022/10/24 01:56:16;;;;;;;9.40;2.50;;;15.30;69.30;;;;;;4965672;28;45873;-67
2022/10/24 01:58:42;;;;;;;11.83;2.07;;;15.40;68.40;;;;;;4965019;28;48177;-67
2022/10/24 02:01:14;;;;;;;8.90;1.57;;;15.40;69.40;;;;;;4983049;28;46853;-67
2022/10/24 02:03:54;;;;;;;8.27;2.23;;;15.40;69.40;;;;;;4964031;28;46412;-67
2022/10/24 02:06:29;;;;;;;7.03;1.90;;;15.40;69.40;;;;;;4963023;28;46530;-67
2022/10/24 02:09:01;;;;;;;7.53;2.37;;;15.50;68.40;;;;;;4980451;28;46699;-67
2022/10/24 02:11:27;;;;;;;4.10;1.80;;;15.50;69.40;;;;;;4962841;28;45813;-67
2022/10/24 02:14:04;;;;;;;6.70;1.67;;;15.50;69.40;;;;;;4966830;28;46374;-67
2022/10/24 02:16:31;;;;;;;6.83;1.93;;;15.50;69.00;;;;;;4983284;28;46551;-67
2022/10/24 02:18:57;;;;;;;5.87;1.90;;;15.50;68.80;;;;;;4980103;28;47325;-67
2022/10/24 02:21:27;;;;;;;4.47;1.67;;;15.50;68.60;;;;;;4964402;28;46521;-67
2022/10/24 02:23:57;;;;;;;5.93;1.93;;;15.50;68.60;;;;;;4965278;28;46374;-67
2022/10/24 02:26:51;;;;;;;8.10;1.97;;;15.50;68.70;;;;;;4965180;28;46611;-67
2022/10/24 02:29:26;;;;;;;7.93;1.97;;;15.40;68.70;;;;;;4964486;28;48087;-67
2022/10/24 02:31:56;;;;;;;6.87;1.70;;;15.40;69.30;;;;;;4982550;28;46444;-67
2022/10/24 02:34:24;;;;;;;3.57;1.57;;;15.30;69.30;;;;;;4964656;28;46465;-67
2022/10/24 02:36:53;;;;;;;8.13;1.60;;;15.30;69.40;;;;;;4965381;28;46433;-67
2022/10/24 02:39:21;;;;;;;4.00;1.60;;;15.30;69.30;;;;;;4964688;28;46425;-66
2022/10/24 02:41:49;;;;;;;8.20;1.97;;;15.30;69.40;;;;;;4965510;28;46554;-67
2022/10/24 02:44:16;;;;;;;7.90;1.47;;;15.20;69.20;;;;;;4964843;28;46475;-67
2022/10/24 02:46:45;;;;;;;6.37;1.70;;;15.20;69.70;;;;;;4966476;28;46477;-67
2022/10/24 02:49:11;;;;;;;9.10;1.93;;;15.20;69.70;;;;;;4965767;28;47875;-67
2022/10/24 02:51:40;;;;;;;5.30;1.70;;;15.20;69.40;;;;;;4981107;28;45746;-67
2022/10/24 02:54:06;;;;;;;6.73;1.60;;;15.10;69.50;;;;;;4965148;28;46457;-67
2022/10/24 02:56:34;;;;;;;8.17;1.87;;;15.20;69.70;;;;;;4966057;28;46486;-68
2022/10/24 02:58:59;;;;;;;11.73;2.03;;;15.10;68.60;;;;;;4965631;28;49079;-67
2022/10/24 03:01:25;;;;;;;5.13;1.97;;;15.10;69.60;;;;;;4964972;28;46368;-67
2022/10/24 03:03:51;;;;;;;3.63;1.53;;;15.10;69.50;;;;;;4980806;28;46614;-67
2022/10/24 03:06:17;;;;;;;6.73;2.00;;;15.10;69.40;;;;;;4965650;28;46445;-67
2022/10/24 03:08:42;;;;;;;6.80;1.60;;;15.10;68.30;;;;;;4964690;28;47784;-67
2022/10/24 03:11:08;;;;;;;6.67;2.00;;;15.10;69.20;;;;;;4972638;28;46494;-67
2022/10/24 03:13:34;;;;;;;12.03;3.17;;;15.10;69.20;;;;;;4965582;28;46478;-67
2022/10/24 03:15:59;;;;;;;6.10;3.33;;;15.10;69.40;;;;;;4983867;28;46572;-68
2022/10/24 03:18:25;;;;;;;15.53;2.73;;;15.10;69.60;;;;;;4966275;28;48229;-68
2022/10/24 03:20:51;;;;;;;11.10;2.83;;;15.10;68.50;;;;;;4965614;28;46451;-68
2022/10/24 03:23:18;;;;;;;9.27;3.47;;;15.10;69.60;;;;;;4965913;28;46120;-68
2022/10/24 03:25:44;;;;;;;23.10;4.00;;;15.10;69.50;;;;;;4964560;28;46529;-68
2022/10/24 03:28:09;;;;;;;14.07;3.43;;;15.10;69.60;;;;;;4966137;28;48646;-67
2022/10/24 03:30:35;;;;;;;5.07;2.33;;;15.10;68.70;;;;;;4965897;28;46362;-68
2022/10/24 03:33:01;;;;;;;11.93;2.80;;;15.00;70.00;;;;;;4982471;28;46360;-67
2022/10/24 03:35:26;;;;;;;8.17;1.97;;;15.00;70.20;;;;;;4965052;28;46695;-70
2022/10/24 03:37:52;;;;;;;10.43;2.30;;;15.00;70.20;;;;;;4965276;28;48353;-67
2022/10/24 03:40:18;;;;;;;11.60;2.27;;;15.10;70.00;;;;;;4965689;28;46659;-67
2022/10/24 03:42:43;;;;;;;7.57;2.33;;;15.10;70.00;;;;;;4965148;28;46529;-67
2022/10/24 03:45:09;;;;;;;6.27;1.90;;;15.10;69.80;;;;;;4966121;28;46180;-66
2022/10/24 03:47:35;;;;;;;9.17;2.77;;;15.20;69.50;;;;;;4965462;28;47461;-66
2022/10/24 03:50:01;;;;;;;5.17;2.37;;;15.20;68.80;;;;;;4983001;28;45795;-67
2022/10/24 03:52:27;;;;;;;4.40;1.93;;;15.10;68.50;;;;;;4966513;28;46454;-67
2022/10/24 03:54:52;;;;;;;9.07;2.00;;;15.20;69.60;;;;;;4965731;28;45857;-67
2022/10/24 03:57:18;;;;;;;7.43;2.07;;;15.10;69.90;;;;;;4965808;28;46422;-67
2022/10/24 03:59:44;;;;;;;6.13;1.90;;;15.20;69.00;;;;;;4982902;28;46313;-67
2022/10/24 04:02:10;;;;;;;7.13;2.23;;;15.20;70.00;;;;;;4965473;28;46658;-67
2022/10/24 04:04:36;;;;;;;6.73;2.33;;;15.20;70.00;;;;;;4981761;28;46464;-67
2022/10/24 04:07:04;;;;;;;11.00;2.00;;;15.10;70.20;;;;;;4982894;28;46274;-69
2022/10/24 04:09:30;;;;;;;7.30;2.27;;;15.20;69.10;;;;;;4964981;28;46502;-67
2022/10/24 04:11:56;;;;;;;12.50;2.53;;;15.20;70.10;;;;;;4964894;28;46425;-69
2022/10/24 04:14:22;;;;;;;9.23;2.43;;;15.20;69.90;;;;;;4965689;28;45945;-69
2022/10/24 04:16:48;;;;;;;5.43;1.70;;;15.20;69.70;;;;;;4964006;28;47768;-69
2022/10/24 04:19:16;;;;;;;4.80;1.63;;;15.20;68.70;;;;;;4964949;28;46474;-69
2022/10/24 04:21:42;;;;;;;6.07;1.97;;;15.30;69.60;;;;;;4964869;28;46390;-69
2022/10/24 04:24:08;;;;;;;8.10;2.40;;;15.20;69.50;;;;;;4965217;28;46615;-67
2022/10/24 04:26:34;;;;;;;10.37;2.23;;;15.20;69.70;;;;;;4964606;28;48080;-68
2022/10/24 04:29:00;;;;;;;6.73;3.43;;;15.20;68.80;;;;;;4964075;28;46409;-66
2022/10/24 04:31:26;;;;;;;7.00;2.17;;;15.20;69.90;;;;;;4964673;28;46357;-68
2022/10/24 04:33:51;;;;;;;8.10;2.10;;;15.20;69.80;;;;;;4964844;28;46582;-69
2022/10/24 04:36:17;;;;;;;10.80;2.20;;;15.20;69.90;;;;;;4963637;28;46666;-69
2022/10/24 04:38:43;;;;;;;12.87;2.40;;;15.20;68.80;;;;;;4965371;28;46618;-69
2022/10/24 04:41:09;;;;;;;35.60;17.20;;;15.30;71.10;;;;;;4964633;28;45849;-67
2022/10/24 04:43:34;;;;;;;29.10;10.50;;;15.30;69.80;;;;;;4965216;28;46325;-68
2022/10/24 04:46:01;;;;;;;8.40;2.40;;;15.30;69.80;;;;;;4963841;28;46591;-68
2022/10/24 04:48:27;;;;;;;4.30;2.50;;;15.30;69.50;;;;;;4964292;28;46346;-68
2022/10/24 04:50:53;;;;;;;8.33;2.57;;;15.30;68.30;;;;;;4964334;28;46461;-68
2022/10/24 04:53:19;;;;;;;6.83;2.00;;;15.30;69.40;;;;;;4982539;28;46610;-71
2022/10/24 04:55:45;;;;;;;9.63;1.83;;;15.30;69.30;;;;;;4981693;28;46607;-69
2022/10/24 04:58:10;;;;;;;7.67;2.13;;;15.30;69.60;;;;;;4965248;28;46663;-68
2022/10/24 05:00:36;;;;;;;9.07;2.27;;;15.30;69.70;;;;;;4963904;28;46464;-68
2022/10/24 05:03:02;;;;;;;10.77;2.70;;;15.30;69.80;;;;;;4982750;28;46484;-69
2022/10/24 05:05:28;;;;;;;4.13;1.80;;;15.30;69.60;;;;;;4980930;28;46388;-69
2022/10/24 05:07:54;;;;;;;5.50;2.20;;;15.30;69.40;;;;;;4965071;28;46509;-69
2022/10/24 05:10:20;;;;;;;4.73;2.00;;;15.30;69.40;;;;;;4964305;28;46524;-68
2022/10/24 05:12:45;;;;;;;6.40;1.93;;;15.30;69.40;;;;;;4964565;28;46636;-68
2022/10/24 05:15:13;;;;;;;7.60;2.43;;;15.30;69.30;;;;;;4980077;28;48093;-69
2022/10/24 05:17:39;;;;;;;5.27;2.10;;;15.30;69.30;;;;;;4964652;28;46377;-68
2022/10/24 05:20:06;;;;;;;12.80;2.20;;;15.30;68.40;;;;;;4964280;28;46472;-69
2022/10/24 05:22:32;;;;;;;10.43;2.87;;;15.30;69.40;;;;;;4981178;28;46418;-68
2022/10/24 05:24:57;;;;;;;9.50;2.70;;;15.30;69.40;;;;;;4980305;28;47885;-68
2022/10/24 05:27:23;;;;;;;10.00;2.30;;;15.20;69.30;;;;;;4964709;28;46437;-68
2022/10/24 05:29:55;;;;;;;9.47;2.17;;;15.30;69.40;;;;;;4963943;28;46454;-68
2022/10/24 05:32:22;;;;;;;11.30;3.53;;;15.30;69.30;;;;;;4964494;28;46441;-68
2022/10/24 05:34:48;;;;;;;9.63;2.70;;;15.30;69.30;;;;;;4964173;28;47953;-68
2022/10/24 05:37:14;;;;;;;9.20;3.27;;;15.30;69.30;;;;;;4964338;28;46591;-69
2022/10/24 05:39:39;;;;;;;5.33;3.20;;;15.30;68.30;;;;;;4981597;28;46444;-68
2022/10/24 05:42:06;;;;;;;6.43;2.90;;;15.30;69.40;;;;;;4964349;28;46381;-68
2022/10/24 05:44:32;;;;;;;14.87;5.23;;;15.30;69.70;;;;;;4962954;28;46713;-68
2022/10/24 05:46:57;;;;;;;9.60;3.83;;;15.20;69.70;;;;;;4982528;28;46356;-68
2022/10/24 05:49:23;;;;;;;16.97;4.90;;;15.20;69.00;;;;;;4963628;28;46372;-68
2022/10/24 05:51:49;;;;;;;14.00;2.80;;;15.20;70.00;;;;;;4961845;28;46600;-68
2022/10/24 05:54:15;;;;;;;21.43;3.40;;;15.20;70.00;;;;;;4963984;28;47884;-67
2022/10/24 05:56:40;;;;;;;23.00;3.60;;;15.20;69.10;;;;;;4963718;28;46677;-68
2022/10/24 05:59:06;;;;;;;19.03;3.20;;;15.20;69.10;;;;;;4963090;28;46353;-68
2022/10/24 06:01:32;;;;;;;7.27;3.73;;;15.30;70.20;;;;;;4959494;28;46739;-69
2022/10/24 06:03:58;;;;;;;11.50;4.00;;;15.30;70.20;;;;;;4962565;28;47957;-69
2022/10/24 06:06:24;;;;;;;9.60;3.63;;;15.30;70.10;;;;;;4961030;28;47298;-68
2022/10/24 06:08:50;;;;;;;12.40;3.43;;;15.40;68.80;;;;;;4962618;28;46377;-68
2022/10/24 06:11:16;;;;;;;11.77;4.07;;;15.40;69.60;;;;;;4961701;28;46102;-68
2022/10/24 06:13:42;;;;;;;8.17;3.20;;;15.40;69.50;;;;;;4961951;28;47939;-68
2022/10/24 06:16:09;;;;;;;9.30;3.30;;;15.40;70.00;;;;;;4978426;28;46455;-68
2022/10/24 06:18:36;;;;;;;8.57;3.00;;;15.40;70.00;;;;;;4963463;28;46932;-68
2022/10/24 06:21:04;;;;;;;7.50;3.23;;;15.40;68.60;;;;;;4961758;28;46579;-68
2022/10/24 06:23:30;;;;;;;9.53;3.77;;;15.50;69.60;;;;;;4961798;28;48031;-68
2022/10/24 06:25:56;;;;;;;9.23;3.40;;;15.50;69.50;;;;;;4959373;28;46376;-68
2022/10/24 06:28:22;;;;;;;7.30;3.50;;;15.50;68.40;;;;;;4960990;28;46397;-68
2022/10/24 06:30:49;;;;;;;10.37;4.10;;;15.50;68.50;;;;;;4977995;28;46384;-68
2022/10/24 06:33:15;;;;;;;10.37;3.30;;;15.50;69.70;;;;;;4978673;28;46731;-68
2022/10/24 06:35:41;;;;;;;5.43;2.97;;;15.50;69.70;;;;;;4976444;28;46498;-68
2022/10/24 06:38:06;;;;;;;8.90;2.87;;;15.50;69.60;;;;;;4960640;28;46465;-68
2022/10/24 06:40:33;;;;;;;11.97;3.23;;;15.50;68.50;;;;;;4979131;28;46483;-68
2022/10/24 06:42:58;;;;;;;6.53;2.47;;;15.50;69.50;;;;;;4960466;28;48932;-68
2022/10/24 06:45:25;;;;;;;11.80;3.27;;;15.60;69.60;;;;;;4976080;28;46396;-68
2022/10/24 06:47:51;;;;;;;6.93;3.47;;;15.60;69.60;;;;;;4961103;28;45948;-68
2022/10/24 06:50:16;;;;;;;9.43;3.60;;;15.60;68.60;;;;;;4962198;28;46629;-68
2022/10/24 06:52:42;;;;;;;16.03;3.60;;;15.50;69.50;;;;;;4960806;28;47667;-68
2022/10/24 06:55:08;;;;;;;8.80;3.60;;;15.60;69.60;;;;;;4958013;28;45905;-68
2022/10/24 06:57:34;;;;;;;11.93;3.73;;;15.70;69.70;;;;;;4978232;28;46383;-68
2022/10/24 07:00:00;;;;;;;14.33;3.70;;;15.80;68.70;;;;;;4977549;28;45961;-68
2022/10/24 07:02:26;;;;;;;11.53;4.10;;;15.80;69.80;;;;;;4963646;28;48986;-68
2022/10/24 07:04:51;;;;;;;10.17;3.30;;;15.90;69.80;;;;;;4960988;28;46425;-68
2022/10/24 07:07:20;;;;;;;9.87;3.10;;;16.00;69.30;;;;;;4963559;28;46464;-68
2022/10/24 07:09:55;;;;;;;14.43;3.17;;;16.10;68.20;;;;;;4963287;28;46531;-68
2022/10/24 07:12:23;;;;;;;11.07;3.00;;;16.10;69.00;;;;;;4963512;28;47886;-68
2022/10/24 07:14:49;;;;;;;8.93;3.80;;;16.20;69.00;;;;;;4961330;28;45833;-68
2022/10/24 07:17:16;;;;;;;11.63;4.37;;;16.20;69.10;;;;;;4963849;28;46429;-68
2022/10/24 07:19:41;;;;;;;9.60;3.70;;;16.10;68.40;;;;;;4963854;28;46453;-69
2022/10/24 07:22:08;;;;;;;7.03;2.50;;;16.10;69.40;;;;;;4964458;28;47687;-68
2022/10/24 07:24:33;;;;;;;13.50;3.20;;;16.10;69.50;;;;;;4959251;28;46587;-68
2022/10/24 07:26:59;;;;;;;8.07;3.33;;;16.10;69.50;;;;;;4982094;28;46493;-68
2022/10/24 07:29:25;;;;;;;8.50;3.20;;;16.20;68.30;;;;;;4982274;28;45947;-68
2022/10/24 07:31:50;;;;;;;9.20;3.57;;;16.20;69.40;;;;;;4963295;28;47931;-68
2022/10/24 07:34:17;;;;;;;11.40;3.60;;;16.20;69.20;;;;;;4960692;28;46411;-69
2022/10/24 07:36:42;;;;;;;7.60;3.30;;;16.20;69.30;;;;;;4966839;28;46435;-69
2022/10/24 07:39:08;;;;;;;10.03;3.30;;;16.20;68.00;;;;;;4982343;28;46666;-68
2022/10/24 07:41:38;;;;;;;12.07;5.23;;;16.20;69.00;;;;;;4978853;28;46367;-68
2022/10/24 07:44:04;;;;;;;10.83;4.40;;;16.40;68.70;;;;;;4963205;28;46423;-69
2022/10/24 07:46:29;;;;;;;8.90;4.53;;;16.30;68.50;;;;;;4979768;28;46443;-69
2022/10/24 07:48:55;;;;;;;10.50;3.50;;;16.30;67.50;;;;;;4979259;28;46570;-68
2022/10/24 07:51:21;;;;;;;7.30;3.80;;;16.30;68.80;;;;;;4982500;28;47731;-69
2022/10/24 07:53:47;;;;;;;17.00;6.67;;;16.30;68.60;;;;;;4964926;28;46858;-68
2022/10/24 07:56:14;;;;;;;15.70;4.03;;;16.30;68.80;;;;;;4979369;28;47548;-69
2022/10/24 07:58:42;;;;;;;10.03;3.03;;;16.30;67.90;;;;;;4963993;28;46471;-69
2022/10/24 08:01:13;;;;;;;7.73;3.00;;;16.30;68.90;;;;;;4963094;28;47741;-68
2022/10/24 08:03:39;;;;;;;13.40;2.90;;;16.40;68.90;;;;;;4964635;28;46520;-69
2022/10/24 08:06:08;;;;;;;13.83;4.67;;;16.40;68.80;;;;;;4964311;28;46601;-69
2022/10/24 08:08:34;;;;;;;12.50;3.70;;;16.40;68.70;;;;;;4964449;28;45969;-68
2022/10/24 08:11:01;;;;;;;12.13;4.37;;;16.30;67.70;;;;;;4980136;28;46491;-68
2022/10/24 08:13:26;;;;;;;11.60;3.40;;;16.30;68.90;;;;;;4967114;28;46335;-68
2022/10/24 08:15:52;;;;;;;14.63;4.43;;;16.30;68.90;;;;;;4970520;28;45813;-70
2022/10/24 08:18:18;;;;;;;10.67;3.40;;;16.30;68.80;;;;;;4965191;28;46544;-68
2022/10/24 08:20:43;;;;;;;10.17;4.50;;;16.40;67.60;;;;;;4980763;28;48211;-68
2022/10/24 08:23:12;;;;;;;7.47;2.50;;;16.40;68.80;;;;;;4965321;28;46551;-68
2022/10/24 08:25:41;;;;;;;11.17;5.47;;;16.40;68.70;;;;;;4968412;28;46606;-69
2022/10/24 08:28:06;;;;;;;13.50;3.60;;;16.40;68.90;;;;;;4965414;28;45946;-68
2022/10/24 08:30:32;;;;;;;12.17;4.90;;;16.40;68.00;;;;;;4984426;28;48345;-70
2022/10/24 08:32:58;;;;;;;18.63;4.17;;;16.30;69.00;;;;;;4967435;28;46254;-69
2022/10/24 08:35:24;;;;;;;18.43;8.07;;;16.40;69.20;;;;;;4967621;28;46293;-68
2022/10/24 08:37:50;;;;;;;13.30;5.93;;;16.30;69.10;;;;;;4982769;28;46457;-69
2022/10/24 08:40:18;;;;;;;46.83;24.47;;;16.30;68.30;;;;;;4960775;28;48861;-68
2022/10/24 08:42:45;;;;;;;7.33;3.80;;;16.30;69.50;;;;;;4982945;28;45813;-68
2022/10/24 08:45:34;;;;;;;6.80;3.00;;;16.20;69.60;;;;;;4982816;28;46328;-68
2022/10/24 08:48:04;;;;;;;10.80;2.43;;;16.20;69.80;;;;;;4983475;28;46498;-68
2022/10/24 08:50:33;;;;;;;9.83;2.50;;;16.20;69.70;;;;;;4981190;28;47165;-68
2022/10/24 08:53:26;;;;;;;8.97;3.70;;;16.20;69.70;;;;;;4961123;28;46224;-68
2022/10/24 08:55:54;;;;;;;7.07;3.33;;;16.20;70.10;;;;;;4980996;28;46447;-69
2022/10/24 08:58:35;;;;;;;8.63;3.00;;;16.20;70.20;;;;;;4966220;28;45981;-68
2022/10/24 09:01:07;;;;;;;6.87;2.53;;;16.20;69.10;;;;;;4963088;28;46678;-68
2022/10/24 09:03:43;;;;;;;8.07;2.67;;;16.20;70.20;;;;;;4963261;28;46492;-68
2022/10/24 09:06:17;;;;;;;10.20;3.63;;;16.40;69.80;;;;;;4976949;28;46436;-69
2022/10/24 09:08:51;;;;;;;5.40;2.07;;;16.60;67.70;;;;;;4982964;28;46457;-68
2022/10/24 09:11:41;;;;;;;13.17;2.40;;;16.60;68.80;;;;;;4960309;28;47179;-69
2022/10/24 09:14:16;;;;;;;10.83;2.73;;;16.70;68.40;;;;;;4979623;28;46557;-69
2022/10/24 09:16:43;;;;;;;14.23;3.13;;;16.80;68.20;;;;;;4960306;28;46483;-69
2022/10/24 09:19:16;;;;;;;12.63;2.57;;;16.70;67.50;;;;;;4979293;28;46392;-69
2022/10/24 09:21:44;;;;;;;8.00;2.90;;;16.70;68.50;;;;;;4962492;28;46372;-69
2022/10/24 09:24:32;;;;;;;6.80;2.67;;;16.60;68.80;;;;;;4960871;28;46444;-68
2022/10/24 09:26:59;;;;;;;9.57;3.20;;;16.60;68.80;;;;;;4962420;28;46468;-70
2022/10/24 09:29:28;;;;;;;11.93;2.80;;;16.60;68.80;;;;;;4960132;28;46317;-69
2022/10/24 09:31:54;;;;;;;8.67;2.77;;;16.50;68.90;;;;;;4962452;28;46548;-69
2022/10/24 09:34:20;;;;;;;10.47;3.00;;;16.50;69.20;;;;;;4965712;28;46477;-68
2022/10/24 09:36:45;;;;;;;8.67;2.67;;;16.40;69.10;;;;;;4960504;28;46430;-68
2022/10/24 09:39:26;;;;;;;8.50;2.70;;;16.20;68.80;;;;;;4980759;28;46066;-68
2022/10/24 09:41:52;;;;;;;5.23;3.00;;;16.20;68.60;;;;;;4981954;28;47941;-68
2022/10/24 09:44:42;;;;;;;8.50;2.47;;;16.10;70.10;;;;;;4964833;28;46504;-68
2022/10/24 09:47:23;;;;;;;11.53;3.27;;;16.10;70.10;;;;;;4958635;28;46414;-69
2022/10/24 09:49:49;;;;;;;14.00;2.63;;;16.00;68.90;;;;;;4964046;28;46512;-68
2022/10/24 09:52:27;;;;;;;6.43;2.57;;;15.90;69.90;;;;;;4979262;28;46581;-69
2022/10/24 09:55:04;;;;;;;8.10;2.43;;;15.90;70.00;;;;;;4978515;28;46411;-69
2022/10/24 09:57:38;;;;;;;8.40;2.60;;;15.90;70.20;;;;;;4979242;28;46372;-69
2022/10/24 10:00:05;;;;;;;11.77;2.80;;;16.00;70.00;;;;;;4963476;28;46560;-69
2022/10/24 10:02:36;;;;;;;14.80;3.37;;;16.00;70.00;;;;;;4958929;28;49133;-69
2022/10/24 10:05:02;;;;;;;5.60;3.23;;;16.10;70.00;;;;;;4963806;28;46444;-70
2022/10/24 10:07:39;;;;;;;10.43;3.43;;;16.20;70.10;;;;;;4966772;28;46448;-69
2022/10/24 10:10:20;;;;;;;9.80;3.53;;;16.30;69.30;;;;;;4978590;28;46585;-69
2022/10/24 10:13:03;;;;;;;16.57;10.33;;;16.50;68.80;;;;;;4983176;28;46581;-70
2022/10/24 10:15:37;;;;;;;18.07;10.60;;;16.70;68.50;;;;;;4956068;28;46390;-69
2022/10/24 10:18:21;;;;;;;11.67;5.40;;;16.80;68.30;;;;;;4962927;28;45985;-69
2022/10/24 10:21:07;;;;;;;25.70;13.57;;;16.80;67.30;;;;;;4979745;28;46339;-71
2022/10/24 10:23:35;;;;;;;22.70;11.27;;;16.80;68.60;;;;;;4977696;28;47479;-71
2022/10/24 10:26:06;;;;;;;33.87;13.50;;;16.80;68.70;;;;;;4962487;28;46392;-68
2022/10/24 10:28:35;;;;;;;25.10;14.10;;;16.90;68.70;;;;;;4981589;28;46560;-69
2022/10/24 10:31:01;;;;;;;31.20;16.27;;;16.90;67.80;;;;;;4977194;28;45992;-69
2022/10/24 10:33:56;;;;;;;16.87;7.47;;;16.90;68.80;;;;;;4978774;28;48636;-69
2022/10/24 10:36:30;;;;;;;23.40;11.03;;;16.80;68.80;;;;;;4981969;28;46735;-68
2022/10/24 10:39:05;;;;;;;13.80;6.23;;;16.50;69.10;;;;;;4961213;28;45876;-69
2022/10/24 10:41:47;;;;;;;10.67;4.03;;;16.50;70.30;;;;;;4964716;28;45994;-67
2022/10/24 10:44:34;;;;;;;7.70;3.30;;;16.40;70.30;;;;;;4966361;28;46665;-68
2022/10/24 10:47:22;;;;;;;8.00;2.60;;;16.30;70.20;;;;;;4967200;28;46530;-68
2022/10/24 10:49:56;;;;;;;9.20;2.63;;;16.20;70.10;;;;;;4982706;28;46381;-68
2022/10/24 10:52:39;;;;;;;5.60;2.47;;;16.20;70.10;;;;;;4965655;28;46353;-68
2022/10/24 10:55:17;;;;;;;10.10;2.83;;;16.10;70.10;;;;;;4962946;28;47838;-68
2022/10/24 10:57:55;;;;;;;9.10;2.93;;;16.10;70.60;;;;;;4962884;28;46594;-68
2022/10/24 11:00:24;;;;;;;5.50;2.10;;;16.00;70.90;;;;;;4963569;28;46355;-68
2022/10/24 11:03:31;;;;;;;10.00;2.63;;;15.90;71.10;;;;;;4982550;28;46548;-68
2022/10/24 11:06:03;;;;;;;7.40;2.30;;;15.90;71.30;;;;;;4883089;29;46680;-68
2022/10/24 11:09:05;;;;;;;6.00;2.30;;;15.80;71.70;;;;;;4965966;28;45834;-68
2022/10/24 11:11:41;;;;;;;12.40;2.50;;;15.80;70.60;;;;;;4946873;28;46373;-68
2022/10/24 11:14:27;;;;;;;14.00;3.10;;;15.70;71.90;;;;;;4981127;28;46000;-68
2022/10/24 11:16:57;;;;;;;9.40;4.40;;;15.70;71.90;;;;;;4956506;28;46674;-68
2022/10/24 11:19:50;;;;;;;18.57;10.13;;;15.70;70.90;;;;;;4963473;28;46472;-68
2022/10/24 11:22:24;;;;;;;8.87;3.93;;;15.70;71.80;;;;;;4946132;28;46635;-68
2022/10/24 11:24:57;;;;;;;8.20;3.00;;;15.60;71.60;;;;;;4954929;28;47081;-68
2022/10/24 11:27:53;;;;;;;9.23;3.57;;;15.70;71.70;;;;;;4963062;28;47676;-68
2022/10/24 11:30:20;;;;;;;6.30;2.90;;;15.60;70.70;;;;;;4950708;28;46415;-68
2022/10/24 11:32:57;;;;;;;8.80;4.10;;;15.60;71.70;;;;;;4964317;28;45920;-69
2022/10/24 11:35:31;;;;;;;7.77;2.77;;;15.60;71.80;;;;;;4982107;28;46427;-69
2022/10/24 11:38:19;;;;;;;12.63;3.20;;;15.50;70.70;;;;;;4963658;28;48107;-68
2022/10/24 11:40:50;;;;;;;11.67;3.20;;;15.50;71.10;;;;;;4967149;28;45694;-68
2022/10/24 11:43:20;;;;;;;5.07;2.80;;;15.50;72.10;;;;;;4965053;28;46504;-68
2022/10/24 11:45:52;;;;;;;7.40;2.73;;;15.50;72.30;;;;;;4980707;28;46436;-68
2022/10/24 11:48:39;;;;;;;14.23;4.20;;;15.50;72.30;;;;;;4964548;28;48122;-68
2022/10/24 11:51:08;;;;;;;5.10;2.57;;;15.50;71.20;;;;;;4964565;28;46379;-68
2022/10/24 11:53:38;;;;;;;14.90;4.43;;;15.50;72.30;;;;;;4964904;28;46425;-68
2022/10/24 11:56:10;;;;;;;10.00;4.57;;;15.50;72.40;;;;;;4980054;28;46765;-68
2022/10/24 11:58:58;;;;;;;9.53;4.50;;;15.40;72.30;;;;;;4965023;28;48227;-68
2022/10/24 12:02:02;;;;;;;11.10;5.40;;;15.40;72.40;;;;;;4964818;28;46461;-68
2022/10/24 12:04:54;;;;;;;23.87;14.07;;;15.40;72.70;;;;;;4962569;28;46595;-68
2022/10/24 12:07:35;;;;;;;14.30;6.23;;;15.40;72.60;;;;;;4963449;28;46675;-67
2022/10/24 12:10:12;;;;;;;9.10;3.43;;;15.40;72.60;;;;;;4977272;28;48267;-67
2022/10/24 12:12:49;;;;;;;7.43;3.60;;;15.40;72.70;;;;;;4964601;28;46345;-68
2022/10/24 12:15:27;;;;;;;6.00;3.13;;;15.40;72.40;;;;;;4979797;28;46293;-67
2022/10/24 12:18:25;;;;;;;10.47;4.10;;;15.50;73.60;;;;;;4963011;28;46624;-68
2022/10/24 12:20:53;;;;;;;8.33;4.73;;;15.50;71.30;;;;;;4926683;28;46596;-68
2022/10/24 12:23:23;;;;;;;7.83;3.10;;;15.50;72.20;;;;;;4980284;28;46274;-68
2022/10/24 12:26:13;;;;;;;5.47;3.00;;;15.60;72.10;;;;;;4962026;28;46769;-68
2022/10/24 12:28:40;;;;;;;6.80;4.30;;;15.70;70.80;;;;;;4982970;28;46301;-67
2022/10/24 12:31:10;;;;;;;8.90;2.50;;;15.70;71.90;;;;;;4979356;28;46679;-67
2022/10/24 12:33:36;;;;;;;8.00;3.60;;;15.70;71.80;;;;;;4980072;28;46504;-68
2022/10/24 12:36:02;;;;;;;29.97;15.63;;;15.60;71.70;;;;;;4977492;28;46430;-68
2022/10/24 12:38:27;;;;;;;5.33;2.00;;;15.50;72.00;;;;;;4979366;28;45805;-68
2022/10/24 12:41:08;;;;;;;5.13;2.30;;;15.50;71.20;;;;;;4980914;28;46533;-68
2022/10/24 12:43:43;;;;;;;7.53;2.20;;;15.40;72.40;;;;;;4965756;28;46402;-68
2022/10/24 12:46:15;;;;;;;8.67;2.70;;;15.40;72.50;;;;;;4978436;28;46552;-71
2022/10/24 12:48:59;;;;;;;6.93;3.60;;;15.40;71.60;;;;;;4963402;28;46447;-68
2022/10/24 12:51:35;;;;;;;7.00;4.43;;;15.40;72.50;;;;;;4963575;28;47882;-68
2022/10/24 12:54:02;;;;;;;13.50;7.43;;;15.30;72.50;;;;;;4980330;28;46244;-69
2022/10/24 12:56:30;;;;;;;13.27;6.00;;;15.30;72.40;;;;;;4960689;28;46553;-69
2022/10/24 12:59:17;;;;;;;6.63;2.90;;;15.30;71.70;;;;;;4962004;28;46518;-69
2022/10/24 13:01:43;;;;;;;5.63;3.00;;;15.30;72.80;;;;;;4963485;28;46632;-70